Time,TemperatureF,DewpointF,PressureIn,WindDirection,WindDirectionDegrees,WindSpeedMPH,WindSpeedGustMPH,Humidity,HourlyPrecipIn,Conditions,Clouds,dailyrainin,SolarRadiationWatts/m^2,SoftwareType,DateUTC
2013-06-26 00:04:00,59.7,58.3,29.96,SSE,164,0.0,0.0,95,0.00,RA,,0.00,0.0,WeatherDisplay:10.37,2013-06-26 07:04:00,
2013-06-26 00:09:00,59.7,58.3,29.95,SSE,164,0.0,0.0,95,0.00,RA,,0.00,0.0,WeatherDisplay:10.37,2013-06-26 07:09:00,
2013-06-26 00:14:00,59.8,58.4,29.96,SSE,164,0.0,0.0,95,0.00,,,0.00,0.0,WeatherDisplay:10.37,2013-06-26 07:14:00,
2013-06-26 00:19:00,59.7,58.3,29.96,SSE,164,0.0,0.0,95,0.00,,,0.00,0.0,WeatherDisplay:10.37,2013-06-26 07:19:00,
2013-06-26 00:24:00,59.5,58.1,29.96,SSE,164,0.1,1.2,95,0.00,,,0.00,0.0,WeatherDisplay:10.37,2013-06-26 07:24:00,
2013-06-26 00:29:00,59.3,57.9,29.96,SSE,164,0.0,0.0,95,0.00,,,0.00,0.0,WeatherDisplay:10.37,2013-06-26 07:29:00,
2013-06-26 00:34:00,59.1,57.7,29.95,SSE,164,0.0,0.0,95,0.00,,,0.00,0.0,WeatherDisplay:10.37,2013-06-26 07:34:00,
2013-06-26 00:39:00,59.0,57.6,29.95,SSE,164,0.0,0.0,95,0.00,,,0.00,0.0,WeatherDisplay:10.37,2013-06-26 07:39:00,
2013-06-26 00:44:00,58.9,57.5,29.95,SSE,164,0.0,0.0,95,0.00,,,0.00,0.0,WeatherDisplay:10.37,2013-06-26 07:44:00,
2013-06-26 00:49:00,58.9,57.5,29.95,SSE,164,0.0,0.0,95,0.00,,,0.00,0.0,WeatherDisplay:10.37,2013-06-26 07:49:00,
2013-06-26 00:54:00,58.9,57.5,29.95,SSE,164,0.0,0.0,95,0.00,,,0.00,0.0,WeatherDisplay:10.37,2013-06-26 07:54:00,
2013-06-26 00:59:00,58.9,57.5,29.95,SSE,164,0.0,0.0,95,0.00,,,0.00,0.0,WeatherDisplay:10.37,2013-06-26 07:59:00,
2013-06-26 01:04:00,58.8,57.4,29.95,SSE,164,0.0,0.0,95,0.00,,,0.00,0.0,WeatherDisplay:10.37,2013-06-26 08:04:00,
2013-06-26 01:09:00,58.8,57.4,29.95,SSE,164,0.0,0.0,95,0.00,,,0.00,0.0,WeatherDisplay:10.37,2013-06-26 08:09:00,
2013-06-26 01:14:00,58.7,57.3,29.95,SSE,164,0.0,0.0,95,0.00,,,0.00,0.0,WeatherDisplay:10.37,2013-06-26 08:14:00,
2013-06-26 01:19:00,58.7,57.3,29.95,SSE,164,0.0,0.0,95,0.00,,,0.00,0.0,WeatherDisplay:10.37,2013-06-26 08:19:00,
2013-06-26 01:24:00,58.6,57.2,29.95,SSE,164,0.0,0.0,95,0.00,,,0.00,0.0,WeatherDisplay:10.37,2013-06-26 08:24:00,
2013-06-26 01:29:00,58.5,57.1,29.95,SSE,164,0.0,0.0,95,0.00,,,0.00,0.0,WeatherDisplay:10.37,2013-06-26 08:29:00,
2013-06-26 01:34:00,58.5,57.1,29.95,SSE,164,0.0,0.0,95,0.00,,,0.00,0.0,WeatherDisplay:10.37,2013-06-26 08:34:00,
2013-06-26 01:39:00,58.4,57.0,29.95,SSE,164,0.0,0.0,95,0.00,,,0.00,0.0,WeatherDisplay:10.37,2013-06-26 08:39:00,
2013-06-26 01:44:00,58.4,57.0,29.95,SSE,164,0.0,0.0,95,0.00,,,0.00,0.0,WeatherDisplay:10.37,2013-06-26 08:44:00,
2013-06-26 01:49:00,58.4,57.0,29.95,SSE,164,0.0,0.0,95,0.00,,,0.00,0.0,WeatherDisplay:10.37,2013-06-26 08:49:00,
2013-06-26 01:54:00,58.5,57.1,29.95,SSE,164,0.0,0.0,95,0.00,,,0.00,0.0,WeatherDisplay:10.37,2013-06-26 08:54:00,
2013-06-26 01:59:00,58.5,57.1,29.95,SSE,164,0.0,0.0,95,0.00,,,0.00,0.0,WeatherDisplay:10.37,2013-06-26 08:59:00,
2013-06-26 02:04:00,58.6,57.5,29.95,SSE,164,0.0,0.0,96,0.00,,,0.00,0.0,WeatherDisplay:10.37,2013-06-26 09:04:00,
2013-06-26 02:09:00,58.6,57.5,29.95,SSE,164,0.0,0.0,96,0.00,,,0.00,0.0,WeatherDisplay:10.37,2013-06-26 09:09:00,
2013-06-26 02:14:00,58.6,57.5,29.95,SSE,164,0.0,0.0,96,0.00,,,0.00,0.0,WeatherDisplay:10.37,2013-06-26 09:14:00,
2013-06-26 02:19:00,58.5,57.4,29.95,SSE,164,0.0,0.0,96,0.00,,,0.00,0.0,WeatherDisplay:10.37,2013-06-26 09:19:00,
2013-06-26 02:24:00,58.4,57.0,29.95,SSE,164,0.0,0.0,95,0.00,,,0.00,0.0,WeatherDisplay:10.37,2013-06-26 09:24:00,
2013-06-26 02:29:00,58.3,56.9,29.95,SSE,164,0.0,0.0,95,0.00,,,0.00,0.0,WeatherDisplay:10.37,2013-06-26 09:29:00,
2013-06-26 02:34:00,58.3,56.9,29.95,SSE,164,0.0,0.0,95,0.00,,,0.00,0.0,WeatherDisplay:10.37,2013-06-26 09:34:00,
2013-06-26 02:39:00,58.3,56.9,29.95,SSE,164,0.0,0.0,95,0.00,,,0.00,0.0,WeatherDisplay:10.37,2013-06-26 09:39:00,
2013-06-26 02:44:00,58.3,56.9,29.95,SSE,164,0.0,0.0,95,0.00,,,0.00,0.0,WeatherDisplay:10.37,2013-06-26 09:44:00,
2013-06-26 02:49:00,58.2,56.8,29.95,SSE,164,0.0,0.0,95,0.00,,,0.00,0.0,WeatherDisplay:10.37,2013-06-26 09:49:00,
2013-06-26 02:54:00,58.3,57.2,29.95,SSE,164,0.0,0.0,96,0.00,,,0.00,0.0,WeatherDisplay:10.37,2013-06-26 09:54:00,
2013-06-26 02:59:00,58.2,57.1,29.95,SSE,164,0.0,0.0,96,0.00,,,0.00,0.0,WeatherDisplay:10.37,2013-06-26 09:59:00,
2013-06-26 03:04:00,58.2,57.1,29.95,SSE,164,0.0,0.0,96,0.00,,,0.00,0.0,WeatherDisplay:10.37,2013-06-26 10:04:00,
2013-06-26 03:09:00,58.3,57.2,29.95,SSE,164,0.0,0.0,96,0.00,,,0.00,0.0,WeatherDisplay:10.37,2013-06-26 10:09:00,
2013-06-26 03:15:00,58.3,57.2,29.95,SSE,164,0.0,0.0,96,0.00,,,0.00,0.0,WeatherDisplay:10.37,2013-06-26 10:15:00,
2013-06-26 03:20:00,58.3,57.2,29.95,SSE,164,0.0,0.0,96,0.00,,,0.00,0.0,WeatherDisplay:10.37,2013-06-26 10:20:00,
2013-06-26 03:25:00,58.4,57.3,29.95,SSE,164,0.0,0.0,96,0.00,,,0.00,0.0,WeatherDisplay:10.37,2013-06-26 10:25:00,
2013-06-26 03:30:00,58.4,57.3,29.96,SSE,164,0.0,0.0,96,0.00,,,0.00,0.0,WeatherDisplay:10.37,2013-06-26 10:30:00,
2013-06-26 03:35:00,58.4,57.3,29.96,SSE,164,0.0,0.0,96,0.00,,,0.00,0.0,WeatherDisplay:10.37,2013-06-26 10:35:00,
2013-06-26 03:36:00,58.4,57.3,29.96,SSE,164,0.0,0.0,96,0.00,,,0.00,0.0,WeatherDisplay:10.37,2013-06-26 10:36:00,
2013-06-26 03:41:00,58.4,57.3,29.96,SSE,164,0.0,0.0,96,0.00,,,0.00,0.0,WeatherDisplay:10.37,2013-06-26 10:41:00,
2013-06-26 03:46:00,58.4,57.3,29.96,SSE,164,0.0,0.0,96,0.00,,,0.00,0.0,WeatherDisplay:10.37,2013-06-26 10:46:00,
2013-06-26 03:51:00,58.3,57.2,29.96,SSE,164,0.0,0.0,96,0.00,,,0.00,0.0,WeatherDisplay:10.37,2013-06-26 10:51:00,
2013-06-26 03:56:00,58.4,57.3,29.96,SSE,164,0.0,0.0,96,0.00,,,0.00,0.0,WeatherDisplay:10.37,2013-06-26 10:56:00,
2013-06-26 04:01:00,58.4,57.3,29.96,SSE,164,0.0,0.0,96,0.00,,,0.00,0.0,WeatherDisplay:10.37,2013-06-26 11:01:00,
2013-06-26 04:06:00,58.4,57.3,29.96,SSE,164,0.0,0.0,96,0.00,,,0.00,0.0,WeatherDisplay:10.37,2013-06-26 11:06:00,
2013-06-26 04:11:00,58.4,57.3,29.96,SSE,164,0.0,0.0,96,0.00,,,0.00,0.0,WeatherDisplay:10.37,2013-06-26 11:11:00,
2013-06-26 04:16:00,58.5,57.4,29.96,SSE,164,0.0,0.0,96,0.00,,,0.00,0.0,WeatherDisplay:10.37,2013-06-26 11:16:00,
2013-06-26 04:21:00,58.4,57.3,29.96,SSE,164,0.0,0.0,96,0.00,,,0.00,0.0,WeatherDisplay:10.37,2013-06-26 11:21:00,
2013-06-26 04:26:00,58.5,57.4,29.96,SSE,164,0.0,0.0,96,0.00,,,0.00,0.0,WeatherDisplay:10.37,2013-06-26 11:26:00,
2013-06-26 04:31:00,58.5,57.4,29.97,SSE,164,0.0,0.0,96,0.00,,,0.00,0.0,WeatherDisplay:10.37,2013-06-26 11:31:00,
2013-06-26 04:36:00,58.5,57.4,29.97,SSE,164,0.0,0.0,96,0.00,,,0.00,0.0,WeatherDisplay:10.37,2013-06-26 11:36:00,
2013-06-26 04:41:00,58.5,57.4,29.97,SSE,164,0.0,0.0,96,0.00,,,0.00,0.0,WeatherDisplay:10.37,2013-06-26 11:41:00,
2013-06-26 04:46:00,58.4,57.3,29.97,SSE,164,0.0,0.0,96,0.00,,,0.00,0.0,WeatherDisplay:10.37,2013-06-26 11:46:00,
2013-06-26 04:51:00,58.3,57.2,29.97,SSE,164,0.0,0.0,96,0.00,,,0.00,0.0,WeatherDisplay:10.37,2013-06-26 11:51:00,
2013-06-26 04:56:00,58.4,57.3,29.97,SSE,164,0.0,0.0,96,0.00,,,0.00,0.0,WeatherDisplay:10.37,2013-06-26 11:56:00,
2013-06-26 05:01:00,58.4,57.3,29.97,SSE,164,0.0,0.0,96,0.00,,,0.00,0.0,WeatherDisplay:10.37,2013-06-26 12:01:00,
2013-06-26 05:06:00,58.3,57.2,29.97,SSE,164,0.0,0.0,96,0.00,,,0.00,0.0,WeatherDisplay:10.37,2013-06-26 12:06:00,
2013-06-26 05:11:00,58.3,57.2,29.97,SSE,164,0.0,0.0,96,0.00,,,0.00,0.0,WeatherDisplay:10.37,2013-06-26 12:11:00,
2013-06-26 05:16:00,58.3,57.2,29.97,SSE,164,0.0,0.0,96,0.00,,,0.00,0.0,WeatherDisplay:10.37,2013-06-26 12:16:00,
2013-06-26 05:21:00,58.4,57.3,29.97,SSE,164,0.0,0.0,96,0.00,,,0.00,0.0,WeatherDisplay:10.37,2013-06-26 12:21:00,
2013-06-26 05:26:00,58.4,57.3,29.97,SSE,164,0.0,0.0,96,0.00,,,0.00,0.0,WeatherDisplay:10.37,2013-06-26 12:26:00,
2013-06-26 05:31:00,58.4,57.3,29.97,SSE,164,0.0,0.0,96,0.00,,,0.00,0.0,WeatherDisplay:10.37,2013-06-26 12:31:00,
2013-06-26 05:36:00,58.5,57.4,29.97,SSE,164,0.0,0.0,96,0.00,,,0.00,0.0,WeatherDisplay:10.37,2013-06-26 12:36:00,
2013-06-26 05:41:00,58.5,57.4,29.98,SSE,164,0.0,0.0,96,0.00,,,0.00,0.0,WeatherDisplay:10.37,2013-06-26 12:41:00,
2013-06-26 05:46:00,58.5,57.4,29.98,SSE,164,0.0,0.0,96,0.00,,,0.00,0.0,WeatherDisplay:10.37,2013-06-26 12:46:00,
2013-06-26 05:52:00,58.6,57.5,29.98,SSE,164,0.0,0.0,96,0.00,,,0.00,0.0,WeatherDisplay:10.37,2013-06-26 12:52:00,
2013-06-26 05:57:00,58.6,57.5,29.98,SSE,164,0.0,0.0,96,0.00,,,0.00,0.0,WeatherDisplay:10.37,2013-06-26 12:57:00,
2013-06-26 06:02:00,58.7,57.6,29.98,SSE,164,0.0,0.0,96,0.00,,,0.00,5.0,WeatherDisplay:10.37,2013-06-26 13:02:00,
2013-06-26 06:07:00,58.7,57.6,29.98,SSE,164,0.0,0.0,96,0.00,,,0.00,7.0,WeatherDisplay:10.37,2013-06-26 13:07:00,
2013-06-26 06:12:00,58.8,57.7,29.98,SSE,164,0.0,0.0,96,0.01,RA,,0.01,12.0,WeatherDisplay:10.37,2013-06-26 13:12:00,
2013-06-26 06:17:00,58.8,57.7,29.99,SSE,164,0.0,0.0,96,0.01,RA,,0.01,14.0,WeatherDisplay:10.37,2013-06-26 13:17:00,
2013-06-26 06:22:00,58.8,57.7,29.99,SSE,164,0.0,0.0,96,0.01,,,0.01,16.0,WeatherDisplay:10.37,2013-06-26 13:22:00,
2013-06-26 06:27:00,58.8,57.7,29.99,SSE,164,0.0,0.0,96,0.01,CLR,,0.01,25.0,WeatherDisplay:10.37,2013-06-26 13:27:00,
2013-06-26 06:32:00,58.8,57.7,29.99,SSE,164,0.0,0.0,96,0.01,CLR,,0.01,30.0,WeatherDisplay:10.37,2013-06-26 13:32:00,
2013-06-26 06:37:00,58.9,57.8,30.00,SSE,164,0.0,0.0,96,0.01,CLR,,0.01,44.0,WeatherDisplay:10.37,2013-06-26 13:37:00,
2013-06-26 06:42:00,59.0,57.9,29.99,SSE,164,0.0,0.0,96,0.01,CLR,,0.01,69.0,WeatherDisplay:10.37,2013-06-26 13:42:00,
2013-06-26 06:47:00,59.3,58.2,30.00,SSE,164,0.0,0.0,96,0.01,CLR,,0.01,102.0,WeatherDisplay:10.37,2013-06-26 13:47:00,
2013-06-26 06:52:00,59.8,58.7,30.00,SSE,164,0.0,0.0,96,0.01,CLR,,0.01,171.0,WeatherDisplay:10.37,2013-06-26 13:52:00,
2013-06-26 06:57:00,60.1,59.0,30.00,SSE,164,0.0,0.0,96,0.01,CLR,,0.01,255.0,WeatherDisplay:10.37,2013-06-26 13:57:00,
2013-06-26 07:02:00,60.4,59.5,30.00,SSE,159,0.0,0.0,97,0.01,CLR,,0.01,111.0,WeatherDisplay:10.37,2013-06-26 14:02:00,
2013-06-26 07:07:00,60.3,59.2,30.00,SSE,157,0.0,0.0,96,0.01,CLR,,0.01,84.0,WeatherDisplay:10.37,2013-06-26 14:07:00,
2013-06-26 07:12:00,60.2,59.1,30.00,SSE,157,0.0,0.0,96,0.00,SCT,,0.01,62.0,WeatherDisplay:10.37,2013-06-26 14:12:00,
2013-06-26 07:17:00,60.3,59.2,30.00,SSE,157,0.0,0.0,96,0.00,SCT,,0.01,67.0,WeatherDisplay:10.37,2013-06-26 14:17:00,
2013-06-26 07:22:00,60.4,59.3,30.00,SSE,157,0.0,0.0,96,0.00,SCT,,0.01,84.0,WeatherDisplay:10.37,2013-06-26 14:22:00,
2013-06-26 07:27:00,60.8,59.7,30.00,SSE,157,0.0,0.0,96,0.00,FEW,,0.01,105.0,WeatherDisplay:10.37,2013-06-26 14:27:00,
2013-06-26 07:32:00,60.8,59.7,30.00,SSE,156,0.0,0.0,96,0.00,FEW,,0.01,127.0,WeatherDisplay:10.37,2013-06-26 14:32:00,
2013-06-26 07:37:00,60.9,59.8,30.00,SSE,157,0.0,0.0,96,0.00,CLR,,0.01,146.0,WeatherDisplay:10.37,2013-06-26 14:37:00,
2013-06-26 07:42:00,61.1,60.0,30.00,SSE,155,0.0,0.0,96,0.00,FEW,,0.01,149.0,WeatherDisplay:10.37,2013-06-26 14:42:00,
2013-06-26 07:47:00,61.4,60.2,30.00,SSE,155,0.0,0.0,96,0.00,FEW,,0.01,149.0,WeatherDisplay:10.37,2013-06-26 14:47:00,
2013-06-26 07:52:00,61.5,60.3,30.00,SSE,149,0.0,0.0,96,0.00,FEW,,0.01,171.0,WeatherDisplay:10.37,2013-06-26 14:52:00,
2013-06-26 07:57:00,62.0,60.8,30.00,SSE,150,0.0,0.0,96,0.00,CLR,,0.01,204.0,WeatherDisplay:10.37,2013-06-26 14:57:00,
2013-06-26 08:02:00,62.2,60.8,30.00,SSE,150,0.0,0.0,95,0.00,CLR,,0.01,339.0,WeatherDisplay:10.37,2013-06-26 15:02:00,
2013-06-26 08:07:00,63.1,61.6,30.00,SSE,150,0.0,0.0,95,0.00,CLR,,0.01,223.0,WeatherDisplay:10.37,2013-06-26 15:07:00,
2013-06-26 08:12:00,63.8,62.0,30.00,SSE,151,0.0,0.0,94,0.00,SCT,,0.01,192.0,WeatherDisplay:10.37,2013-06-26 15:12:00,
2013-06-26 08:17:00,63.9,61.8,30.01,SSE,157,2.9,4.0,93,0.00,FEW,,0.01,288.0,WeatherDisplay:10.37,2013-06-26 15:17:00,
2013-06-26 08:22:00,64.0,61.6,30.01,SSW,207,2.7,8.1,92,0.00,CLR,,0.01,418.0,WeatherDisplay:10.37,2013-06-26 15:22:00,
2013-06-26 08:27:00,64.6,61.9,30.01,South,183,4.2,6.0,91,0.00,CLR,,0.01,469.0,WeatherDisplay:10.37,2013-06-26 15:27:00,
2013-06-26 08:32:00,64.8,61.5,30.01,South,181,5.5,9.2,89,0.00,CLR,,0.01,504.0,WeatherDisplay:10.37,2013-06-26 15:32:00,
2013-06-26 08:37:00,64.9,61.3,30.01,South,184,3.2,3.5,88,0.00,CLR,,0.01,529.0,WeatherDisplay:10.37,2013-06-26 15:37:00,
2013-06-26 08:42:00,65.2,61.6,30.01,South,182,1.5,3.5,88,0.00,CLR,,0.01,366.0,WeatherDisplay:10.37,2013-06-26 15:42:00,
2013-06-26 08:47:00,65.4,61.1,30.01,SSW,197,2.6,5.8,86,0.00,CLR,,0.01,360.0,WeatherDisplay:10.37,2013-06-26 15:47:00,
2013-06-26 08:52:00,65.3,61.0,30.01,South,182,4.4,6.9,86,0.00,CLR,,0.01,587.0,WeatherDisplay:10.37,2013-06-26 15:52:00,
2013-06-26 08:57:00,65.4,61.4,30.01,South,184,3.6,5.8,87,0.00,CLR,,0.01,445.0,WeatherDisplay:10.37,2013-06-26 15:57:00,
2013-06-26 09:02:00,65.2,60.9,30.01,South,172,6.5,8.1,86,0.00,BKN,,0.01,199.0,WeatherDisplay:10.37,2013-06-26 16:02:00,
2013-06-26 09:07:00,65.1,60.8,30.01,SSW,198,7.0,11.5,86,0.00,CLR,,0.01,446.0,WeatherDisplay:10.37,2013-06-26 16:07:00,
2013-06-26 09:12:00,64.9,60.9,30.01,South,188,6.2,10.4,87,0.00,CLR,,0.01,427.0,WeatherDisplay:10.37,2013-06-26 16:12:00,
2013-06-26 09:17:00,65.4,61.1,30.01,SSW,196,5.7,10.4,86,0.00,CLR,,0.01,673.0,WeatherDisplay:10.37,2013-06-26 16:17:00,
2013-06-26 09:22:00,65.4,60.8,30.02,South,176,3.5,5.8,85,0.00,SCT,,0.01,279.0,WeatherDisplay:10.37,2013-06-26 16:22:00,
2013-06-26 09:27:00,65.8,61.2,30.01,South,191,3.9,7.0,85,0.00,CLR,,0.01,631.0,WeatherDisplay:10.37,2013-06-26 16:27:00,
2013-06-26 09:32:00,66.1,61.5,30.02,South,171,2.9,8.1,85,0.00,CLR,,0.01,680.0,WeatherDisplay:10.37,2013-06-26 16:32:00,
2013-06-26 09:37:00,66.5,61.5,30.01,South,179,3.6,8.1,84,0.00,CLR,,0.01,652.0,WeatherDisplay:10.37,2013-06-26 16:37:00,
2013-06-26 09:42:00,67.0,62.0,30.01,South,184,6.9,8.1,84,0.00,CLR,,0.01,693.0,WeatherDisplay:10.37,2013-06-26 16:42:00,
2013-06-26 09:47:00,66.9,61.6,30.01,South,191,6.2,9.2,83,0.00,CLR,,0.01,728.0,WeatherDisplay:10.37,2013-06-26 16:47:00,
2013-06-26 09:52:00,67.5,62.2,30.01,SSW,192,3.8,5.8,83,0.00,CLR,,0.01,610.0,WeatherDisplay:10.37,2013-06-26 16:52:00,
2013-06-26 09:57:00,67.9,62.2,30.01,SSW,205,4.8,8.1,82,0.00,FEW,,0.01,517.0,WeatherDisplay:10.37,2013-06-26 16:57:00,
2013-06-26 10:02:00,67.7,62.3,30.01,SSW,194,2.9,5.8,83,0.00,FEW,,0.01,520.0,WeatherDisplay:10.37,2013-06-26 17:02:00,
2013-06-26 10:07:00,68.3,62.6,30.01,South,189,4.7,8.1,82,0.00,FEW,,0.01,550.0,WeatherDisplay:10.37,2013-06-26 17:07:00,
2013-06-26 10:12:00,68.6,62.5,30.01,South,183,4.8,6.9,81,0.00,CLR,,0.01,635.0,WeatherDisplay:10.37,2013-06-26 17:12:00,
2013-06-26 10:17:00,68.7,62.6,30.01,South,180,1.9,3.5,81,0.00,FEW,,0.01,571.0,WeatherDisplay:10.37,2013-06-26 17:17:00,
2013-06-26 10:23:00,70.3,63.5,30.01,South,182,0.7,3.5,79,0.00,CLR,,0.01,663.0,WeatherDisplay:10.37,2013-06-26 17:23:00,
2013-06-26 10:28:00,70.2,63.0,30.01,SSW,202,1.9,3.5,78,0.00,FEW,,0.01,598.0,WeatherDisplay:10.37,2013-06-26 17:28:00,
2013-06-26 10:33:00,69.8,63.0,30.01,South,179,3.8,5.8,79,0.00,CLR,,0.01,643.0,WeatherDisplay:10.37,2013-06-26 17:33:00,
2013-06-26 10:38:00,69.3,62.5,30.01,South,186,4.4,4.6,79,0.00,SCT,,0.01,545.0,WeatherDisplay:10.37,2013-06-26 17:38:00,
2013-06-26 10:43:00,70.1,63.6,30.01,South,180,2.3,3.5,80,0.00,CLR,,0.01,831.0,WeatherDisplay:10.37,2013-06-26 17:43:00,
2013-06-26 10:48:00,70.2,63.0,30.01,South,187,3.7,5.8,78,0.00,FEW,,0.01,608.0,WeatherDisplay:10.37,2013-06-26 17:48:00,
2013-06-26 10:53:00,70.3,63.8,30.01,SSW,196,4.5,6.9,80,0.00,CLR,,0.01,1095.0,WeatherDisplay:10.37,2013-06-26 17:53:00,
2013-06-26 10:58:00,70.2,63.0,30.01,SSE,155,2.9,5.8,78,0.00,CLR,,0.01,974.0,WeatherDisplay:10.37,2013-06-26 17:58:00,
2013-06-26 11:03:00,70.6,63.8,30.01,SSW,198,5.9,6.9,79,0.00,CLR,,0.01,939.0,WeatherDisplay:10.37,2013-06-26 18:03:00,
2013-06-26 11:08:00,70.3,63.5,30.01,SSW,197,4.5,10.4,79,0.00,CLR,,0.01,896.0,WeatherDisplay:10.37,2013-06-26 18:08:00,
2013-06-26 11:13:00,70.1,63.3,30.01,SSW,192,5.2,10.4,79,0.00,CLR,,0.01,904.0,WeatherDisplay:10.37,2013-06-26 18:13:00,
2013-06-26 11:18:00,70.3,63.5,30.01,South,185,5.4,9.2,79,0.00,CLR,,0.01,918.0,WeatherDisplay:10.37,2013-06-26 18:18:00,
2013-06-26 11:23:00,70.7,63.5,30.01,SSW,202,5.3,8.1,78,0.00,CLR,,0.01,921.0,WeatherDisplay:10.37,2013-06-26 18:23:00,
2013-06-26 11:28:00,70.9,63.7,30.01,South,183,4.8,9.2,78,0.00,CLR,,0.01,889.0,WeatherDisplay:10.37,2013-06-26 18:28:00,
2013-06-26 11:33:00,71.3,63.7,30.01,South,179,4.9,6.9,77,0.00,CLR,,0.01,997.0,WeatherDisplay:10.37,2013-06-26 18:33:00,
2013-06-26 11:38:00,71.4,63.8,30.01,South,173,4.9,10.4,77,0.00,CLR,,0.01,962.0,WeatherDisplay:10.37,2013-06-26 18:38:00,
2013-06-26 11:43:00,71.7,64.1,30.01,South,176,4.4,6.9,77,0.00,CLR,,0.01,960.0,WeatherDisplay:10.37,2013-06-26 18:43:00,
2013-06-26 11:48:00,72.7,64.3,30.01,South,180,6.5,11.5,75,0.00,CLR,,0.01,970.0,WeatherDisplay:10.37,2013-06-26 18:48:00,
2013-06-26 11:53:00,74.4,64.8,30.01,SE,145,1.2,3.5,72,0.00,CLR,,0.01,1053.0,WeatherDisplay:10.37,2013-06-26 18:53:00,
2013-06-26 11:58:00,73.8,64.2,30.01,South,184,2.7,8.1,72,0.00,CLR,,0.01,974.0,WeatherDisplay:10.37,2013-06-26 18:58:00,
2013-06-26 12:03:00,74.9,65.7,30.01,North,360,4.4,12.7,73,0.00,CLR,,0.01,984.0,WeatherDisplay:10.37,2013-06-26 19:03:00,
2013-06-26 12:08:00,76.0,65.1,30.01,East,90,0.9,3.5,69,0.00,CLR,,0.01,1025.0,WeatherDisplay:10.37,2013-06-26 19:08:00,
2013-06-26 12:13:00,77.3,64.6,30.01,WNW,293,3.0,4.6,65,0.00,BKN,,0.01,517.0,WeatherDisplay:10.37,2013-06-26 19:13:00,
2013-06-26 12:18:00,76.9,64.7,30.01,North,360,1.1,3.5,66,0.00,CLR,,0.01,990.0,WeatherDisplay:10.37,2013-06-26 19:18:00,
2013-06-26 12:23:00,76.9,64.2,30.01,WNW,302,3.3,4.6,65,0.00,CLR,,0.01,984.0,WeatherDisplay:10.37,2013-06-26 19:23:00,
2013-06-26 12:28:00,76.7,64.5,30.01,NNE,14,3.3,3.5,66,0.00,CLR,,0.01,965.0,WeatherDisplay:10.37,2013-06-26 19:28:00,
2013-06-26 12:33:00,77.8,64.2,30.01,NNE,12,3.8,3.8,63,0.00,CLR,,0.01,1018.0,WeatherDisplay:10.37,2013-06-26 19:33:00,
2013-06-26 12:38:00,78.4,65.2,30.01,NNE,22,4.5,8.1,64,0.00,CLR,,0.01,960.0,WeatherDisplay:10.37,2013-06-26 19:38:00,
2013-06-26 12:43:00,77.8,64.2,30.01,NE,34,0.9,5.8,63,0.00,CLR,,0.01,1060.0,WeatherDisplay:10.37,2013-06-26 19:43:00,
2013-06-26 12:48:00,78.3,63.3,30.01,SSW,204,1.4,3.5,60,0.00,CLR,,0.01,1000.0,WeatherDisplay:10.37,2013-06-26 19:48:00,
2013-06-26 12:53:00,78.0,64.4,30.01,SW,225,0.4,2.0,63,0.00,CLR,,0.01,997.0,WeatherDisplay:10.37,2013-06-26 19:53:00,
2013-06-26 12:58:00,77.4,62.9,30.01,South,175,1.0,3.5,61,0.00,CLR,,0.01,997.0,WeatherDisplay:10.37,2013-06-26 19:58:00,
2013-06-26 13:03:00,76.7,62.7,30.01,South,183,5.0,6.9,62,0.00,CLR,,0.01,1009.0,WeatherDisplay:10.37,2013-06-26 20:03:00,
2013-06-26 13:08:00,78.1,64.5,30.01,NNE,13,1.9,8.1,63,0.00,CLR,,0.01,1009.0,WeatherDisplay:10.37,2013-06-26 20:08:00,
2013-06-26 13:13:00,78.9,62.9,30.01,West,270,5.3,6.9,58,0.00,CLR,,0.01,1002.0,WeatherDisplay:10.37,2013-06-26 20:13:00,
2013-06-26 13:18:00,79.5,62.9,30.01,SSW,196,1.4,4.6,57,0.00,CLR,,0.01,998.0,WeatherDisplay:10.37,2013-06-26 20:18:00,
2013-06-26 13:23:00,77.8,64.6,30.01,ESE,105,2.0,3.5,64,0.00,CLR,,0.01,997.0,WeatherDisplay:10.37,2013-06-26 20:23:00,
2013-06-26 13:28:00,77.5,64.8,30.00,SSW,200,2.2,4.6,65,0.00,CLR,,0.01,1011.0,WeatherDisplay:10.37,2013-06-26 20:28:00,
2013-06-26 13:33:00,77.8,64.6,30.00,SSE,159,6.1,9.2,64,0.00,CLR,,0.01,1014.0,WeatherDisplay:10.37,2013-06-26 20:33:00,
2013-06-26 13:38:00,77.0,64.8,30.00,South,172,4.7,6.9,66,0.00,CLR,,0.01,1004.0,WeatherDisplay:10.37,2013-06-26 20:38:00,
2013-06-26 13:43:00,75.9,63.7,30.00,South,174,10.2,15.0,66,0.00,CLR,,0.01,1000.0,WeatherDisplay:10.37,2013-06-26 20:43:00,
2013-06-26 13:48:00,75.5,64.2,30.00,South,187,6.8,11.5,68,0.00,CLR,,0.01,991.0,WeatherDisplay:10.37,2013-06-26 20:48:00,
2013-06-26 13:53:00,76.2,64.4,30.00,South,179,7.6,10.4,67,0.00,CLR,,0.01,979.0,WeatherDisplay:10.37,2013-06-26 20:53:00,
2013-06-26 13:58:00,76.8,64.6,30.00,South,188,6.4,6.4,66,0.00,CLR,,0.01,981.0,WeatherDisplay:10.37,2013-06-26 20:58:00,
2013-06-26 14:03:00,76.9,65.1,30.00,SSW,196,5.2,6.9,67,0.00,CLR,,0.01,972.0,WeatherDisplay:10.37,2013-06-26 21:03:00,
2013-06-26 14:08:00,76.7,64.5,30.00,South,188,7.9,11.5,66,0.00,FEW,,0.01,965.0,WeatherDisplay:10.37,2013-06-26 21:08:00,
2013-06-26 14:13:00,76.2,64.0,30.00,SSW,207,9.4,12.7,66,0.00,FEW,,0.01,962.0,WeatherDisplay:10.37,2013-06-26 21:13:00,
2013-06-26 14:18:00,76.2,64.0,30.00,South,188,8.7,11.5,66,0.00,FEW,,0.01,958.0,WeatherDisplay:10.37,2013-06-26 21:18:00,
2013-06-26 14:23:00,76.3,64.1,30.00,SE,144,4.8,8.1,66,0.00,FEW,,0.01,953.0,WeatherDisplay:10.37,2013-06-26 21:23:00,
2013-06-26 14:28:00,77.0,64.3,30.00,SSW,211,6.0,8.1,65,0.00,FEW,,0.01,951.0,WeatherDisplay:10.37,2013-06-26 21:28:00,
2013-06-26 14:33:00,77.0,64.8,29.99,South,189,6.8,10.4,66,0.00,FEW,,0.01,947.0,WeatherDisplay:10.37,2013-06-26 21:33:00,
2013-06-26 14:39:00,77.2,64.1,29.99,SSE,167,5.3,8.1,64,0.00,FEW,,0.01,942.0,WeatherDisplay:10.37,2013-06-26 21:39:00,
2013-06-26 14:44:00,77.1,64.0,29.99,SSW,195,7.6,9.2,64,0.00,FEW,,0.01,935.0,WeatherDisplay:10.37,2013-06-26 21:44:00,
2013-06-26 14:49:00,77.1,64.0,29.99,South,173,7.4,11.5,64,0.00,FEW,,0.01,926.0,WeatherDisplay:10.37,2013-06-26 21:49:00,
2013-06-26 14:54:00,77.5,64.4,29.99,SSW,206,7.1,9.2,64,0.00,FEW,,0.01,919.0,WeatherDisplay:10.37,2013-06-26 21:54:00,
2013-06-26 14:59:00,77.0,63.4,29.99,SSW,203,8.1,11.5,63,0.00,FEW,,0.01,912.0,WeatherDisplay:10.37,2013-06-26 21:59:00,
2013-06-26 15:04:00,77.4,63.8,29.99,SSW,207,8.5,9.0,63,0.00,FEW,,0.01,900.0,WeatherDisplay:10.37,2013-06-26 22:04:00,
2013-06-26 15:09:00,78.1,64.9,29.99,South,181,3.3,5.8,64,0.00,FEW,,0.01,891.0,WeatherDisplay:10.37,2013-06-26 22:09:00,
2013-06-26 15:14:00,78.2,64.1,29.99,SSW,207,6.5,8.1,62,0.00,FEW,,0.01,881.0,WeatherDisplay:10.37,2013-06-26 22:14:00,
2013-06-26 15:19:00,77.9,64.3,29.99,South,180,5.4,8.1,63,0.00,FEW,,0.01,870.0,WeatherDisplay:10.37,2013-06-26 22:19:00,
2013-06-26 15:24:00,78.2,64.1,29.99,South,191,2.6,4.0,62,0.00,FEW,,0.01,865.0,WeatherDisplay:10.37,2013-06-26 22:24:00,
2013-06-26 15:29:00,79.0,64.9,29.98,South,186,0.9,3.5,62,0.00,FEW,,0.01,853.0,WeatherDisplay:10.37,2013-06-26 22:29:00,
2013-06-26 15:34:00,79.5,65.3,29.98,SSW,205,2.0,3.5,62,0.00,FEW,,0.01,840.0,WeatherDisplay:10.37,2013-06-26 22:34:00,
2013-06-26 15:39:00,80.2,64.6,29.98,ESE,111,3.4,4.6,59,0.00,FEW,,0.01,830.0,WeatherDisplay:10.37,2013-06-26 22:39:00,
2013-06-26 15:44:00,80.7,64.1,29.98,NNE,19,0.1,3.5,57,0.00,FEW,,0.01,823.0,WeatherDisplay:10.37,2013-06-26 22:44:00,
2013-06-26 15:49:00,81.1,63.4,29.98,NNE,23,1.9,3.5,55,0.00,FEW,,0.01,814.0,WeatherDisplay:10.37,2013-06-26 22:49:00,
2013-06-26 15:54:00,81.0,63.3,29.97,ESE,115,1.4,3.5,55,0.00,FEW,,0.01,800.0,WeatherDisplay:10.37,2013-06-26 22:54:00,
2013-06-26 15:59:00,80.6,64.5,29.97,ENE,60,0.7,1.2,58,0.00,FEW,,0.01,788.0,WeatherDisplay:10.37,2013-06-26 22:59:00,
2013-06-26 16:04:00,80.9,64.7,29.97,SSW,193,3.8,5.0,58,0.00,FEW,,0.01,779.0,WeatherDisplay:10.37,2013-06-26 23:04:00,
2013-06-26 16:09:00,80.1,63.5,29.97,NNE,23,0.3,5.8,57,0.00,FEW,,0.01,761.0,WeatherDisplay:10.37,2013-06-26 23:09:00,
2013-06-26 16:14:00,81.4,63.7,29.97,WNW,302,2.4,6.9,55,0.00,FEW,,0.01,752.0,WeatherDisplay:10.37,2013-06-26 23:14:00,
2013-06-26 16:19:00,81.7,65.0,29.97,NNE,26,3.7,6.9,57,0.00,FEW,,0.01,738.0,WeatherDisplay:10.37,2013-06-26 23:19:00,
2013-06-26 16:24:00,81.8,63.5,29.96,NNE,24,2.7,4.6,54,0.00,FEW,,0.01,724.0,WeatherDisplay:10.37,2013-06-26 23:24:00,
2013-06-26 16:29:00,82.1,63.8,29.96,West,281,1.9,5.8,54,0.00,FEW,,0.01,714.0,WeatherDisplay:10.37,2013-06-26 23:29:00,
2013-06-26 16:34:00,82.4,63.5,29.97,West,265,1.2,3.5,53,0.00,FEW,,0.01,698.0,WeatherDisplay:10.37,2013-06-26 23:34:00,
2013-06-26 16:39:00,81.9,63.1,29.97,NW,306,3.3,8.1,53,0.00,FEW,,0.01,682.0,WeatherDisplay:10.37,2013-06-26 23:39:00,
2013-06-26 16:44:00,81.7,63.4,29.96,WNW,294,0.9,3.5,54,0.00,FEW,,0.01,670.0,WeatherDisplay:10.37,2013-06-26 23:44:00,
2013-06-26 16:49:00,81.8,63.5,29.96,West,281,1.0,3.5,54,0.00,FEW,,0.01,657.0,WeatherDisplay:10.37,2013-06-26 23:49:00,
2013-06-26 16:54:00,82.0,63.2,29.96,WNW,302,2.4,5.8,53,0.00,FEW,,0.01,642.0,WeatherDisplay:10.37,2013-06-26 23:54:00,
2013-06-26 16:59:00,82.1,62.7,29.96,West,276,6.2,6.2,52,0.00,FEW,,0.01,628.0,WeatherDisplay:10.37,2013-06-26 23:59:00,
2013-06-26 17:04:00,81.7,63.4,29.96,WNW,300,0.8,2.3,54,0.00,FEW,,0.01,612.0,WeatherDisplay:10.37,2013-06-27 00:04:00,
2013-06-26 17:09:00,81.9,63.1,29.96,WNW,300,3.4,6.9,53,0.00,FEW,,0.01,592.0,WeatherDisplay:10.37,2013-06-27 00:09:00,
2013-06-26 17:14:00,81.9,63.6,29.96,North,351,1.1,3.5,54,0.00,FEW,,0.01,578.0,WeatherDisplay:10.37,2013-06-27 00:14:00,
2013-06-26 17:19:00,81.9,63.1,29.96,North,9,0.5,3.5,53,0.00,FEW,,0.01,563.0,WeatherDisplay:10.37,2013-06-27 00:19:00,
2013-06-26 17:24:00,82.1,63.8,29.96,WSW,256,1.1,2.3,54,0.00,FEW,,0.01,548.0,WeatherDisplay:10.37,2013-06-27 00:24:00,
2013-06-26 17:29:00,81.9,63.6,29.96,WNW,282,0.3,2.3,54,0.00,FEW,,0.01,533.0,WeatherDisplay:10.37,2013-06-27 00:29:00,
2013-06-26 17:34:00,81.7,63.4,29.96,West,279,0.6,2.3,54,0.00,FEW,,0.01,519.0,WeatherDisplay:10.37,2013-06-27 00:34:00,
2013-06-26 17:39:00,81.6,63.3,29.96,NNE,24,2.2,3.5,54,0.00,FEW,,0.01,501.0,WeatherDisplay:10.37,2013-06-27 00:39:00,
2013-06-26 17:44:00,81.5,63.3,29.96,WNW,288,1.9,4.6,54,0.00,FEW,,0.01,485.0,WeatherDisplay:10.37,2013-06-27 00:44:00,
2013-06-26 17:49:00,81.6,63.3,29.95,WNW,299,1.8,3.5,54,0.00,FEW,,0.01,468.0,WeatherDisplay:10.37,2013-06-27 00:49:00,
2013-06-26 17:54:00,81.6,63.3,29.95,WNW,293,3.0,5.0,54,0.00,FEW,,0.01,452.0,WeatherDisplay:10.37,2013-06-27 00:54:00,
2013-06-26 17:59:00,81.5,63.3,29.95,WNW,294,0.3,3.5,54,0.00,FEW,,0.01,438.0,WeatherDisplay:10.37,2013-06-27 00:59:00,
2013-06-26 18:04:00,81.1,63.4,29.95,West,275,4.4,6.9,55,0.00,FEW,,0.01,420.0,WeatherDisplay:10.37,2013-06-27 01:04:00,
2013-06-26 18:09:00,80.7,63.0,29.95,WNW,295,2.7,4.6,55,0.00,FEW,,0.01,404.0,WeatherDisplay:10.37,2013-06-27 01:09:00,
2013-06-26 18:14:00,80.5,62.8,29.95,NW,304,1.7,3.5,55,0.00,FEW,,0.01,383.0,WeatherDisplay:10.37,2013-06-27 01:14:00,
2013-06-26 18:19:00,80.5,63.4,29.95,SW,228,2.4,2.4,56,0.00,FEW,,0.01,371.0,WeatherDisplay:10.37,2013-06-27 01:19:00,
2013-06-26 18:24:00,80.1,63.0,29.95,WNW,294,0.9,3.5,56,0.00,FEW,,0.01,352.0,WeatherDisplay:10.37,2013-06-27 01:24:00,
2013-06-26 18:29:00,79.7,63.1,29.95,WNW,293,2.7,4.6,57,0.00,FEW,,0.01,334.0,WeatherDisplay:10.37,2013-06-27 01:29:00,
2013-06-26 18:34:00,79.3,63.2,29.95,West,275,1.6,3.5,58,0.00,FEW,,0.01,316.0,WeatherDisplay:10.37,2013-06-27 01:34:00,
2013-06-26 18:39:00,79.2,63.1,29.95,NNW,342,1.1,3.5,58,0.00,FEW,,0.01,302.0,WeatherDisplay:10.37,2013-06-27 01:39:00,
2013-06-26 18:44:00,78.7,62.7,29.95,WNW,298,0.8,6.9,58,0.00,FEW,,0.01,283.0,WeatherDisplay:10.37,2013-06-27 01:44:00,
2013-06-26 18:49:00,78.5,63.0,29.95,WNW,302,4.6,4.6,59,0.00,FEW,,0.01,267.0,WeatherDisplay:10.37,2013-06-27 01:49:00,
2013-06-26 18:54:00,78.0,63.0,29.95,NNW,344,0.1,1.2,60,0.00,FEW,,0.01,251.0,WeatherDisplay:10.37,2013-06-27 01:54:00,
2013-06-26 18:59:00,77.7,62.7,29.95,WNW,287,2.1,4.6,60,0.00,SCT,,0.01,230.0,WeatherDisplay:10.37,2013-06-27 01:59:00,
2013-06-26 19:04:00,77.4,62.9,29.96,West,275,1.2,2.3,61,0.00,SCT,,0.01,216.0,WeatherDisplay:10.37,2013-06-27 02:04:00,
2013-06-26 19:09:00,77.1,63.1,29.95,WNW,284,1.0,1.2,62,0.00,SCT,,0.01,195.0,WeatherDisplay:10.37,2013-06-27 02:09:00,
2013-06-26 19:14:00,76.8,62.8,29.95,NW,304,0.9,3.5,62,0.00,SCT,,0.01,172.0,WeatherDisplay:10.37,2013-06-27 02:14:00,
2013-06-26 19:19:00,76.4,62.4,29.95,North,360,1.3,4.6,62,0.00,SCT,,0.01,153.0,WeatherDisplay:10.37,2013-06-27 02:19:00,
2013-06-26 19:24:00,76.0,62.0,29.96,WNW,285,1.7,8.1,62,0.00,BKN,,0.01,30.0,WeatherDisplay:10.37,2013-06-27 02:24:00,
2013-06-26 19:29:00,75.2,61.7,29.96,WNW,294,3.0,5.8,63,0.00,BKN,,0.01,21.0,WeatherDisplay:10.37,2013-06-27 02:29:00,
2013-06-26 19:34:00,74.6,61.6,29.96,WNW,294,0.7,3.5,64,0.00,BKN,,0.01,19.0,WeatherDisplay:10.37,2013-06-27 02:34:00,
2013-06-26 19:39:00,74.1,61.6,29.96,West,272,3.1,6.9,65,0.00,BKN,,0.01,18.0,WeatherDisplay:10.37,2013-06-27 02:39:00,
2013-06-26 19:44:00,73.7,61.2,29.95,West,274,3.9,5.8,65,0.00,BKN,,0.01,18.0,WeatherDisplay:10.37,2013-06-27 02:44:00,
2013-06-26 19:49:00,73.4,60.9,29.96,West,281,1.8,3.5,65,0.00,BKN,,0.01,16.0,WeatherDisplay:10.37,2013-06-27 02:49:00,
2013-06-26 19:54:00,73.1,61.5,29.96,WNW,291,1.3,2.3,67,0.00,BKN,,0.01,14.0,WeatherDisplay:10.37,2013-06-27 02:54:00,
2013-06-26 19:59:00,72.7,61.5,29.96,West,279,2.9,3.5,68,0.00,BKN,,0.01,14.0,WeatherDisplay:10.37,2013-06-27 02:59:00,
2013-06-26 20:04:00,72.3,61.1,29.96,WNW,287,1.9,3.5,68,0.00,BKN,,0.01,12.0,WeatherDisplay:10.37,2013-06-27 03:04:00,
2013-06-26 20:09:00,72.0,61.3,29.96,WNW,286,2.7,3.5,69,0.00,BKN,,0.01,12.0,WeatherDisplay:10.37,2013-06-27 03:09:00,
2013-06-26 20:14:00,71.6,60.9,29.96,East,86,1.9,3.5,69,0.00,BKN,,0.01,11.0,WeatherDisplay:10.37,2013-06-27 03:14:00,
2013-06-26 20:19:00,71.2,60.5,29.96,NW,309,0.1,2.3,69,0.00,BKN,,0.01,9.0,WeatherDisplay:10.37,2013-06-27 03:19:00,
2013-06-26 20:24:00,70.9,60.2,29.96,WNW,299,4.5,6.9,69,0.00,BKN,,0.01,7.0,WeatherDisplay:10.37,2013-06-27 03:24:00,
2013-06-26 20:29:00,70.6,60.3,29.97,WNW,289,0.1,3.5,70,0.00,BKN,,0.01,5.0,WeatherDisplay:10.37,2013-06-27 03:29:00,
2013-06-26 20:34:00,70.4,60.1,29.97,West,277,0.2,2.3,70,0.00,BKN,,0.01,0.0,WeatherDisplay:10.37,2013-06-27 03:34:00,
2013-06-26 20:39:00,70.0,60.2,29.97,West,277,0.2,3.5,71,0.00,,,0.01,0.0,WeatherDisplay:10.37,2013-06-27 03:39:00,
2013-06-26 20:44:00,69.8,60.0,29.97,NW,311,3.9,8.1,71,0.00,,,0.01,0.0,WeatherDisplay:10.37,2013-06-27 03:44:00,
2013-06-26 20:49:00,69.6,59.8,29.97,WNW,289,0.0,2.3,71,0.00,,,0.01,0.0,WeatherDisplay:10.37,2013-06-27 03:49:00,
2013-06-26 20:54:00,69.4,59.6,29.97,WNW,288,1.9,3.5,71,0.00,,,0.01,0.0,WeatherDisplay:10.37,2013-06-27 03:54:00,
2013-06-26 20:59:00,69.2,59.8,29.98,WNW,288,0.2,3.5,72,0.00,,,0.01,0.0,WeatherDisplay:10.37,2013-06-27 03:59:00,
2013-06-26 21:01:00,69.1,59.7,29.98,WNW,289,0.0,1.2,72,0.00,,,0.01,0.0,WeatherDisplay:10.37,2013-06-27 04:01:00,
2013-06-26 21:02:00,69.0,60.0,29.98,WNW,289,0.0,0.0,73,0.00,,,0.01,0.0,WeatherDisplay:10.37,2013-06-27 04:02:00,
2013-06-26 21:03:00,68.9,59.9,29.98,WNW,289,0.0,0.0,73,0.00,,,0.01,0.0,WeatherDisplay:10.37,2013-06-27 04:03:00,
2013-06-26 21:06:00,68.8,60.6,29.98,WNW,289,0.0,0.0,75,0.00,,,0.01,0.0,WeatherDisplay:10.37,2013-06-27 04:06:00,
2013-06-26 21:07:00,68.6,60.4,29.98,WNW,288,0.0,0.0,75,0.00,,,0.01,0.0,WeatherDisplay:10.37,2013-06-27 04:07:00,
2013-06-26 21:12:00,68.1,60.6,29.98,WNW,288,0.0,0.0,77,0.00,,,0.01,0.0,WeatherDisplay:10.37,2013-06-27 04:12:00,
2013-06-26 21:17:00,67.7,60.2,29.98,WNW,289,0.0,0.0,77,0.00,,,0.01,0.0,WeatherDisplay:10.37,2013-06-27 04:17:00,
2013-06-26 21:22:00,67.4,60.3,29.98,WNW,288,0.1,0.0,78,0.00,,,0.01,0.0,WeatherDisplay:10.37,2013-06-27 04:22:00,
2013-06-26 21:27:00,67.2,59.0,29.98,WNW,289,0.0,0.0,75,0.00,,,0.01,0.0,WeatherDisplay:10.37,2013-06-27 04:27:00,
2013-06-26 21:32:00,67.4,58.8,29.98,WNW,288,2.8,3.5,74,0.00,,,0.01,0.0,WeatherDisplay:10.37,2013-06-27 04:32:00,
2013-06-26 21:37:00,67.6,58.6,29.99,WNW,289,1.3,3.5,73,0.00,,,0.01,0.0,WeatherDisplay:10.37,2013-06-27 04:37:00,
2013-06-26 21:42:00,67.4,58.8,29.99,WNW,289,0.0,0.0,74,0.00,,,0.01,0.0,WeatherDisplay:10.37,2013-06-27 04:42:00,
2013-06-26 21:47:00,67.4,58.4,29.99,WNW,289,0.1,1.2,73,0.00,,,0.01,0.0,WeatherDisplay:10.37,2013-06-27 04:47:00,
2013-06-26 21:52:00,67.3,58.3,29.99,NW,323,0.0,0.0,73,0.00,,,0.01,0.0,WeatherDisplay:10.37,2013-06-27 04:52:00,
2013-06-26 21:57:00,66.9,59.8,29.99,NW,323,0.0,0.0,78,0.00,,,0.01,0.0,WeatherDisplay:10.37,2013-06-27 04:57:00,
2013-06-26 22:02:00,66.4,60.0,29.99,SW,223,1.9,3.5,80,0.00,,,0.01,0.0,WeatherDisplay:10.37,2013-06-27 05:02:00,
2013-06-26 22:07:00,66.0,60.0,29.99,SW,223,0.0,0.0,81,0.00,,,0.01,0.0,WeatherDisplay:10.37,2013-06-27 05:07:00,
2013-06-26 22:12:00,65.8,60.2,30.00,SW,223,0.8,2.3,82,0.00,,,0.01,0.0,WeatherDisplay:10.37,2013-06-27 05:12:00,
2013-06-26 22:17:00,65.5,59.9,30.00,SW,223,0.0,0.0,82,0.00,,,0.01,0.0,WeatherDisplay:10.37,2013-06-27 05:17:00,
2013-06-26 22:22:00,65.2,59.9,30.00,SW,223,0.3,0.0,83,0.00,,,0.01,0.0,WeatherDisplay:10.37,2013-06-27 05:22:00,
2013-06-26 22:27:00,64.9,59.6,30.00,SW,223,0.0,1.2,83,0.00,,,0.01,0.0,WeatherDisplay:10.37,2013-06-27 05:27:00,
2013-06-26 22:32:00,65.0,59.7,30.00,SW,223,0.0,0.0,83,0.00,,,0.01,0.0,WeatherDisplay:10.37,2013-06-27 05:32:00,
2013-06-26 22:37:00,64.5,59.2,30.00,SW,223,0.0,0.0,83,0.00,,,0.01,0.0,WeatherDisplay:10.37,2013-06-27 05:37:00,
2013-06-26 22:42:00,64.2,59.3,30.01,SW,223,0.0,0.0,84,0.00,,,0.01,0.0,WeatherDisplay:10.37,2013-06-27 05:42:00,
2013-06-26 22:47:00,64.1,59.5,30.00,SW,223,0.0,0.0,85,0.00,,,0.01,0.0,WeatherDisplay:10.37,2013-06-27 05:47:00,
2013-06-26 22:52:00,63.8,59.2,30.01,SW,223,0.0,0.0,85,0.00,,,0.01,0.0,WeatherDisplay:10.37,2013-06-27 05:52:00,
2013-06-26 22:57:00,63.6,59.3,30.01,SW,223,0.0,0.0,86,0.00,,,0.01,0.0,WeatherDisplay:10.37,2013-06-27 05:57:00,
2013-06-26 23:02:00,63.4,59.5,30.01,SW,223,0.6,1.2,87,0.00,CLR,,0.01,0.0,WeatherDisplay:10.37,2013-06-27 06:02:00,
2013-06-26 23:07:00,63.4,59.5,30.01,SW,223,0.9,3.5,87,0.00,CLR,,0.01,0.0,WeatherDisplay:10.37,2013-06-27 06:07:00,
2013-06-26 23:12:00,63.2,58.9,30.01,SW,224,0.3,1.2,86,0.00,CLR,,0.01,0.0,WeatherDisplay:10.37,2013-06-27 06:12:00,
2013-06-26 23:17:00,63.0,59.1,30.01,SW,223,0.0,0.0,87,0.00,CLR,,0.01,0.0,WeatherDisplay:10.37,2013-06-27 06:17:00,
2013-06-26 23:22:00,62.9,59.0,30.02,SW,224,0.0,0.0,87,0.00,CLR,,0.01,0.0,WeatherDisplay:10.37,2013-06-27 06:22:00,
2013-06-26 23:27:00,62.8,58.9,30.02,SW,223,0.0,0.0,87,0.00,CLR,,0.01,0.0,WeatherDisplay:10.37,2013-06-27 06:27:00,
2013-06-26 23:32:00,62.9,59.0,30.02,SW,224,0.0,0.0,87,0.00,CLR,,0.01,0.0,WeatherDisplay:10.37,2013-06-27 06:32:00,
2013-06-26 23:37:00,62.5,58.6,30.02,SW,223,0.0,0.0,87,0.00,CLR,,0.01,0.0,WeatherDisplay:10.37,2013-06-27 06:37:00,
2013-06-26 23:42:00,62.4,58.5,30.02,SW,224,0.0,0.0,87,0.00,CLR,,0.01,0.0,WeatherDisplay:10.37,2013-06-27 06:42:00,
2013-06-26 23:47:00,62.4,58.5,30.02,SW,224,0.0,0.0,87,0.00,CLR,,0.01,0.0,WeatherDisplay:10.37,2013-06-27 06:47:00,
2013-06-26 23:52:00,62.2,58.6,30.02,SW,223,0.0,0.0,88,0.00,CLR,,0.01,0.0,WeatherDisplay:10.37,2013-06-27 06:52:00,
2013-06-26 23:57:00,62.1,58.5,30.02,SW,224,0.0,0.0,88,0.00,CLR,,0.01,0.0,WeatherDisplay:10.37,2013-06-27 06:57:00,